sensor_id;sensor_type;location;lat;lon;timestamp;pressure;altitude;pressure_sealevel;temperature;humidity
15694;BME280;7947;48.834;9.132;2023-03-14T00:02:33;96560.06;;;11.90;87.60
15694;BME280;7947;48.834;9.132;2023-03-14T00:05:36;96546.16;;;11.88;87.89
15694;BME280;7947;48.834;9.132;2023-03-14T00:08:39;96578.34;;;11.97;87.32
15694;BME280;7947;48.834;9.132;2023-03-14T00:11:43;96569.06;;;11.94;87.85
15694;BME280;7947;48.834;9.132;2023-03-14T00:14:46;96561.28;;;11.93;88.11
15694;BME280;7947;48.834;9.132;2023-03-14T00:17:48;96552.97;;;11.77;88.96
15694;BME280;7947;48.834;9.132;2023-03-14T00:20:51;96543.75;;;11.87;88.31
15694;BME280;7947;48.834;9.132;2023-03-14T00:23:54;96532.88;;;11.83;88.79
15694;BME280;7947;48.834;9.132;2023-03-14T00:26:58;96534.97;;;11.77;89.41
15694;BME280;7947;48.834;9.132;2023-03-14T00:30:01;96534.97;;;11.77;89.21
15694;BME280;7947;48.834;9.132;2023-03-14T00:33:04;96542.53;;;11.84;89.18
15694;BME280;7947;48.834;9.132;2023-03-14T00:36:09;96543.28;;;11.85;88.58
15694;BME280;7947;48.834;9.132;2023-03-14T00:39:12;96542.84;;;11.83;88.66
15694;BME280;7947;48.834;9.132;2023-03-14T00:42:16;96544.13;;;11.76;88.19
15694;BME280;7947;48.834;9.132;2023-03-14T00:45:19;96549.59;;;11.89;88.34
15694;BME280;7947;48.834;9.132;2023-03-14T00:48:22;96544.88;;;11.86;88.67
15694;BME280;7947;48.834;9.132;2023-03-14T00:51:25;96551.22;;;11.81;88.65
15694;BME280;7947;48.834;9.132;2023-03-14T00:54:27;96549.53;;;11.68;88.40
15694;BME280;7947;48.834;9.132;2023-03-14T00:57:31;96551.88;;;11.52;89.21
15694;BME280;7947;48.834;9.132;2023-03-14T01:00:35;96562.75;;;11.73;88.60
15694;BME280;7947;48.834;9.132;2023-03-14T01:03:38;96552.34;;;11.80;88.62
15694;BME280;7947;48.834;9.132;2023-03-14T01:06:40;96569.72;;;11.83;87.61
15694;BME280;7947;48.834;9.132;2023-03-14T01:09:43;96577.31;;;11.81;87.56
15694;BME280;7947;48.834;9.132;2023-03-14T01:12:48;96585.84;;;11.74;88.96
15694;BME280;7947;48.834;9.132;2023-03-14T01:15:50;96574.28;;;11.82;87.77
15694;BME280;7947;48.834;9.132;2023-03-14T01:18:54;96565.28;;;11.78;88.21
15694;BME280;7947;48.834;9.132;2023-03-14T01:21:57;96568.25;;;11.85;88.41
15694;BME280;7947;48.834;9.132;2023-03-14T01:25:01;96567.19;;;11.77;88.49
15694;BME280;7947;48.834;9.132;2023-03-14T01:28:05;96538.13;;;11.79;89.11
15694;BME280;7947;48.834;9.132;2023-03-14T01:31:10;96529.56;;;11.86;87.66
15694;BME280;7947;48.834;9.132;2023-03-14T01:34:13;96520.56;;;11.82;87.54
15694;BME280;7947;48.834;9.132;2023-03-14T01:37:15;96515.94;;;11.91;87.29
15694;BME280;7947;48.834;9.132;2023-03-14T01:40:19;96505.25;;;11.83;87.39
15694;BME280;7947;48.834;9.132;2023-03-14T01:43:23;96488.28;;;11.99;85.56
15694;BME280;7947;48.834;9.132;2023-03-14T01:46:35;96465.25;;;11.90;85.93
15694;BME280;7947;48.834;9.132;2023-03-14T01:49:39;96463.25;;;11.78;87.44
15694;BME280;7947;48.834;9.132;2023-03-14T01:52:45;96469.72;;;11.77;86.94
15694;BME280;7947;48.834;9.132;2023-03-14T01:55:52;96483.84;;;11.95;85.03
15694;BME280;7947;48.834;9.132;2023-03-14T01:58:58;96478.69;;;11.90;84.57
15694;BME280;7947;48.834;9.132;2023-03-14T02:02:04;96471.22;;;11.95;84.10
15694;BME280;7947;48.834;9.132;2023-03-14T02:05:09;96481.03;;;11.91;83.46
15694;BME280;7947;48.834;9.132;2023-03-14T02:08:14;96473.47;;;11.85;83.11
15694;BME280;7947;48.834;9.132;2023-03-14T02:11:19;96478.69;;;11.81;82.62
15694;BME280;7947;48.834;9.132;2023-03-14T02:14:29;96470.78;;;11.85;81.94
15694;BME280;7947;48.834;9.132;2023-03-14T02:17:33;96465.41;;;11.85;81.65
15694;BME280;7947;48.834;9.132;2023-03-14T02:20:41;96454.53;;;11.81;81.36
15694;BME280;7947;48.834;9.132;2023-03-14T02:23:51;96450.75;;;11.82;81.82
15694;BME280;7947;48.834;9.132;2023-03-14T02:27:21;96447.13;;;11.78;81.56
15694;BME280;7947;48.834;9.132;2023-03-14T02:30:26;96422.22;;;11.69;82.04
15694;BME280;7947;48.834;9.132;2023-03-14T02:33:29;96422.22;;;11.69;82.18
15694;BME280;7947;48.834;9.132;2023-03-14T02:36:32;96428.22;;;11.66;81.97
15694;BME280;7947;48.834;9.132;2023-03-14T02:39:37;96421.63;;;11.55;83.58
15694;BME280;7947;48.834;9.132;2023-03-14T02:42:42;96432.34;;;11.55;83.98
15694;BME280;7947;48.834;9.132;2023-03-14T02:45:46;96428.25;;;11.49;84.80
15694;BME280;7947;48.834;9.132;2023-03-14T02:48:52;96412.13;;;11.57;83.74
15694;BME280;7947;48.834;9.132;2023-03-14T02:51:55;96410.53;;;11.56;83.73
15694;BME280;7947;48.834;9.132;2023-03-14T02:54:58;96411.97;;;11.54;83.57
15694;BME280;7947;48.834;9.132;2023-03-14T02:58:02;96402.50;;;11.56;82.63
15694;BME280;7947;48.834;9.132;2023-03-14T03:01:06;96412.50;;;11.47;83.44
15694;BME280;7947;48.834;9.132;2023-03-14T03:04:08;96388.13;;;11.52;83.20
15694;BME280;7947;48.834;9.132;2023-03-14T03:07:11;96379.59;;;11.59;81.83
15694;BME280;7947;48.834;9.132;2023-03-14T03:10:14;96384.16;;;11.58;82.00
15694;BME280;7947;48.834;9.132;2023-03-14T03:13:19;96378.19;;;11.53;82.21
15694;BME280;7947;48.834;9.132;2023-03-14T03:16:22;96380.06;;;11.61;81.66
15694;BME280;7947;48.834;9.132;2023-03-14T03:19:25;96363.63;;;11.62;80.65
15694;BME280;7947;48.834;9.132;2023-03-14T03:22:27;96357.00;;;11.60;80.11
15694;BME280;7947;48.834;9.132;2023-03-14T03:25:30;96349.72;;;11.60;80.03
15694;BME280;7947;48.834;9.132;2023-03-14T03:28:34;96366.81;;;11.56;79.96
15694;BME280;7947;48.834;9.132;2023-03-14T03:31:37;96367.47;;;11.53;79.35
15694;BME280;7947;48.834;9.132;2023-03-14T03:34:40;96368.06;;;11.58;78.44
15694;BME280;7947;48.834;9.132;2023-03-14T03:37:43;96338.53;;;11.67;77.89
15694;BME280;7947;48.834;9.132;2023-03-14T03:40:46;96344.69;;;11.59;78.73
15694;BME280;7947;48.834;9.132;2023-03-14T03:43:50;96343.31;;;11.53;79.19
15694;BME280;7947;48.834;9.132;2023-03-14T03:46:53;96326.19;;;11.66;77.39
15694;BME280;7947;48.834;9.132;2023-03-14T03:49:55;96330.94;;;11.60;77.90
15694;BME280;7947;48.834;9.132;2023-03-14T03:52:58;96337.22;;;11.64;77.26
15694;BME280;7947;48.834;9.132;2023-03-14T03:56:01;96340.41;;;11.58;77.27
15694;BME280;7947;48.834;9.132;2023-03-14T03:59:06;96326.06;;;11.54;76.58
15694;BME280;7947;48.834;9.132;2023-03-14T04:02:09;96327.81;;;11.50;76.98
15694;BME280;7947;48.834;9.132;2023-03-14T04:05:12;96332.09;;;11.51;76.89
15694;BME280;7947;48.834;9.132;2023-03-14T04:08:14;96333.06;;;11.46;76.02
15694;BME280;7947;48.834;9.132;2023-03-14T04:11:17;96329.16;;;11.44;75.94
15694;BME280;7947;48.834;9.132;2023-03-14T04:14:22;96324.69;;;11.48;75.32
15694;BME280;7947;48.834;9.132;2023-03-14T04:17:25;96330.75;;;11.36;75.87
15694;BME280;7947;48.834;9.132;2023-03-14T04:20:27;96331.91;;;11.56;74.29
15694;BME280;7947;48.834;9.132;2023-03-14T04:23:30;96326.63;;;11.39;75.62
15694;BME280;7947;48.834;9.132;2023-03-14T04:26:33;96316.81;;;11.43;74.81
15694;BME280;7947;48.834;9.132;2023-03-14T04:29:37;96325.13;;;11.21;75.38
15694;BME280;7947;48.834;9.132;2023-03-14T04:32:40;96321.63;;;11.29;75.18
15694;BME280;7947;48.834;9.132;2023-03-14T04:35:43;96323.22;;;11.30;74.07
15694;BME280;7947;48.834;9.132;2023-03-14T04:38:46;96314.34;;;11.38;73.92
15694;BME280;7947;48.834;9.132;2023-03-14T04:41:49;96316.25;;;11.29;73.85
15694;BME280;7947;48.834;9.132;2023-03-14T04:44:53;96308.44;;;11.15;74.85
15694;BME280;7947;48.834;9.132;2023-03-14T04:47:56;96301.16;;;11.16;75.36
15694;BME280;7947;48.834;9.132;2023-03-14T04:50:58;96293.34;;;11.02;75.30
15694;BME280;7947;48.834;9.132;2023-03-14T04:54:01;96289.09;;;11.01;75.57
15694;BME280;7947;48.834;9.132;2023-03-14T04:57:04;96286.88;;;11.03;76.79
15694;BME280;7947;48.834;9.132;2023-03-14T05:00:09;96285.56;;;11.09;75.41
15694;BME280;7947;48.834;9.132;2023-03-14T05:03:14;96293.22;;;11.28;73.22
15694;BME280;7947;48.834;9.132;2023-03-14T05:06:17;96279.81;;;11.28;73.00
15694;BME280;7947;48.834;9.132;2023-03-14T05:09:20;96281.53;;;11.32;73.04
15694;BME280;7947;48.834;9.132;2023-03-14T05:12:23;96276.78;;;11.29;72.08
15694;BME280;7947;48.834;9.132;2023-03-14T05:15:27;96266.53;;;11.31;72.40
15694;BME280;7947;48.834;9.132;2023-03-14T05:18:30;96272.91;;;11.18;73.79
15694;BME280;7947;48.834;9.132;2023-03-14T05:21:32;96273.88;;;11.14;73.96
15694;BME280;7947;48.834;9.132;2023-03-14T05:24:35;96269.84;;;10.99;73.74
15694;BME280;7947;48.834;9.132;2023-03-14T05:27:38;96265.25;;;11.00;73.90
15694;BME280;7947;48.834;9.132;2023-03-14T05:30:42;96263.84;;;11.02;73.70
15694;BME280;7947;48.834;9.132;2023-03-14T05:33:45;96260.22;;;10.98;74.55
15694;BME280;7947;48.834;9.132;2023-03-14T05:36:48;96260.19;;;11.07;73.46
15694;BME280;7947;48.834;9.132;2023-03-14T05:39:51;96249.00;;;11.05;74.60
15694;BME280;7947;48.834;9.132;2023-03-14T05:42:53;96252.16;;;11.07;73.78
15694;BME280;7947;48.834;9.132;2023-03-14T05:45:57;96262.31;;;11.22;72.14
15694;BME280;7947;48.834;9.132;2023-03-14T05:49:00;96244.00;;;11.24;72.39
15694;BME280;7947;48.834;9.132;2023-03-14T05:52:03;96258.34;;;11.28;72.01
15694;BME280;7947;48.834;9.132;2023-03-14T05:55:06;96261.25;;;11.14;73.07
15694;BME280;7947;48.834;9.132;2023-03-14T05:58:09;96258.91;;;11.13;73.09
15694;BME280;7947;48.834;9.132;2023-03-14T06:01:13;96261.88;;;11.11;74.10
15694;BME280;7947;48.834;9.132;2023-03-14T06:04:15;96243.06;;;11.20;72.36
15694;BME280;7947;48.834;9.132;2023-03-14T06:07:18;96261.44;;;11.09;72.76
15694;BME280;7947;48.834;9.132;2023-03-14T06:10:21;96257.84;;;11.05;73.97
15694;BME280;7947;48.834;9.132;2023-03-14T06:13:23;96252.47;;;11.05;75.22
15694;BME280;7947;48.834;9.132;2023-03-14T06:16:27;96263.63;;;11.07;74.61
15694;BME280;7947;48.834;9.132;2023-03-14T06:19:30;96260.94;;;11.16;75.22
15694;BME280;7947;48.834;9.132;2023-03-14T06:22:33;96262.69;;;11.12;76.60
15694;BME280;7947;48.834;9.132;2023-03-14T06:25:36;96258.59;;;11.06;76.02
15694;BME280;7947;48.834;9.132;2023-03-14T06:28:39;96262.22;;;11.10;75.65
15694;BME280;7947;48.834;9.132;2023-03-14T06:31:43;96258.81;;;11.01;76.68
15694;BME280;7947;48.834;9.132;2023-03-14T06:34:46;96256.59;;;11.03;77.07
15694;BME280;7947;48.834;9.132;2023-03-14T06:37:49;96249.69;;;11.22;73.09
15694;BME280;7947;48.834;9.132;2023-03-14T06:40:52;96241.94;;;11.21;73.35
15694;BME280;7947;48.834;9.132;2023-03-14T06:43:54;96237.34;;;11.50;72.38
15694;BME280;7947;48.834;9.132;2023-03-14T06:46:58;96236.16;;;11.89;69.39
15694;BME280;7947;48.834;9.132;2023-03-14T06:50:01;96232.81;;;12.82;67.07
15694;BME280;7947;48.834;9.132;2023-03-14T06:53:05;96237.84;;;14.07;60.73
15694;BME280;7947;48.834;9.132;2023-03-14T06:56:10;96225.94;;;14.95;56.41
15694;BME280;7947;48.834;9.132;2023-03-14T06:59:16;96232.78;;;16.08;53.29
15694;BME280;7947;48.834;9.132;2023-03-14T07:02:27;96223.28;;;17.50;48.27
15694;BME280;7947;48.834;9.132;2023-03-14T07:05:46;96216.44;;;18.49;45.78
15694;BME280;7947;48.834;9.132;2023-03-14T07:08:55;96224.59;;;19.91;42.96
15694;BME280;7947;48.834;9.132;2023-03-14T07:12:01;96229.28;;;21.18;39.31
15694;BME280;7947;48.834;9.132;2023-03-14T07:15:08;96234.50;;;22.41;36.31
15694;BME280;7947;48.834;9.132;2023-03-14T07:18:36;96243.50;;;23.14;34.26
15694;BME280;7947;48.834;9.132;2023-03-14T07:21:43;96237.13;;;24.16;33.25
15694;BME280;7947;48.834;9.132;2023-03-14T07:24:52;96238.78;;;24.44;32.00
15694;BME280;7947;48.834;9.132;2023-03-14T07:27:59;96247.97;;;22.87;34.79
15694;BME280;7947;48.834;9.132;2023-03-14T07:31:07;96242.34;;;20.39;38.34
15694;BME280;7947;48.834;9.132;2023-03-14T07:34:14;96247.34;;;18.41;42.69
15694;BME280;7947;48.834;9.132;2023-03-14T07:37:21;96259.44;;;17.35;46.84
15694;BME280;7947;48.834;9.132;2023-03-14T07:40:27;96257.09;;;16.66;48.20
15694;BME280;7947;48.834;9.132;2023-03-14T07:43:32;96257.13;;;15.74;51.51
15694;BME280;7947;48.834;9.132;2023-03-14T07:46:45;96252.56;;;15.27;54.26
15694;BME280;7947;48.834;9.132;2023-03-14T07:49:58;96246.91;;;14.86;54.97
15694;BME280;7947;48.834;9.132;2023-03-14T07:53:04;96253.50;;;14.57;56.64
15694;BME280;7947;48.834;9.132;2023-03-14T07:56:10;96250.69;;;14.38;57.45
15694;BME280;7947;48.834;9.132;2023-03-14T07:59:16;96254.75;;;14.20;57.83
15694;BME280;7947;48.834;9.132;2023-03-14T08:02:23;96244.41;;;13.94;59.63
15694;BME280;7947;48.834;9.132;2023-03-14T08:05:34;96256.69;;;13.80;58.40
15694;BME280;7947;48.834;9.132;2023-03-14T08:08:42;96240.44;;;13.76;60.27
15694;BME280;7947;48.834;9.132;2023-03-14T08:11:48;96244.00;;;13.80;60.36
15694;BME280;7947;48.834;9.132;2023-03-14T08:14:54;96239.75;;;13.79;60.03
15694;BME280;7947;48.834;9.132;2023-03-14T08:17:59;96237.75;;;13.76;60.35
15694;BME280;7947;48.834;9.132;2023-03-14T08:21:08;96241.63;;;13.91;59.55
15694;BME280;7947;48.834;9.132;2023-03-14T08:24:16;96245.09;;;13.91;59.11
15694;BME280;7947;48.834;9.132;2023-03-14T08:27:23;96224.19;;;14.00;58.25
15694;BME280;7947;48.834;9.132;2023-03-14T08:30:29;96230.72;;;13.99;58.90
15694;BME280;7947;48.834;9.132;2023-03-14T08:33:38;96232.72;;;14.02;57.96
15694;BME280;7947;48.834;9.132;2023-03-14T08:36:45;96219.09;;;14.11;57.84
15694;BME280;7947;48.834;9.132;2023-03-14T08:39:53;96235.00;;;14.16;57.65
15694;BME280;7947;48.834;9.132;2023-03-14T08:43:00;96237.25;;;14.14;56.44
15694;BME280;7947;48.834;9.132;2023-03-14T08:46:07;96252.38;;;14.03;56.03
15694;BME280;7947;48.834;9.132;2023-03-14T08:49:15;96257.84;;;14.06;56.23
15694;BME280;7947;48.834;9.132;2023-03-14T08:52:25;96253.03;;;14.00;55.87
15694;BME280;7947;48.834;9.132;2023-03-14T08:55:34;96264.03;;;14.07;57.32
15694;BME280;7947;48.834;9.132;2023-03-14T08:58:40;96255.66;;;14.24;56.10
15694;BME280;7947;48.834;9.132;2023-03-14T09:01:49;96265.63;;;14.35;55.65
15694;BME280;7947;48.834;9.132;2023-03-14T09:04:54;96261.69;;;14.33;55.36
15694;BME280;7947;48.834;9.132;2023-03-14T09:08:02;96283.13;;;14.41;56.02
15694;BME280;7947;48.834;9.132;2023-03-14T09:11:09;96280.88;;;14.43;55.73
15694;BME280;7947;48.834;9.132;2023-03-14T09:14:15;96299.31;;;14.41;56.77
15694;BME280;7947;48.834;9.132;2023-03-14T09:17:25;96314.63;;;14.37;57.25
15694;BME280;7947;48.834;9.132;2023-03-14T09:20:48;96311.91;;;14.25;57.73
15694;BME280;7947;48.834;9.132;2023-03-14T09:23:56;96324.66;;;14.13;58.25
15694;BME280;7947;48.834;9.132;2023-03-14T09:27:05;96332.19;;;14.07;60.39
15694;BME280;7947;48.834;9.132;2023-03-14T09:30:23;96322.81;;;13.89;60.25
15694;BME280;7947;48.834;9.132;2023-03-14T09:33:31;96327.84;;;13.67;61.99
15694;BME280;7947;48.834;9.132;2023-03-14T09:36:39;96343.00;;;13.71;62.59
15694;BME280;7947;48.834;9.132;2023-03-14T09:39:46;96329.19;;;13.73;62.59
15694;BME280;7947;48.834;9.132;2023-03-14T09:42:55;96325.03;;;13.87;62.77
15694;BME280;7947;48.834;9.132;2023-03-14T09:46:04;96330.66;;;13.82;61.33
15694;BME280;7947;48.834;9.132;2023-03-14T09:49:12;96338.06;;;13.85;60.06
15694;BME280;7947;48.834;9.132;2023-03-14T09:52:22;96334.72;;;13.76;60.01
15694;BME280;7947;48.834;9.132;2023-03-14T09:55:32;96336.03;;;13.82;61.18
15694;BME280;7947;48.834;9.132;2023-03-14T09:58:45;96326.59;;;14.00;61.72
15694;BME280;7947;48.834;9.132;2023-03-14T10:02:15;96326.47;;;14.48;59.21
15694;BME280;7947;48.834;9.132;2023-03-14T10:05:27;96319.50;;;14.91;57.52
15694;BME280;7947;48.834;9.132;2023-03-14T10:09:38;96309.97;;;15.40;55.64
15694;BME280;7947;48.834;9.132;2023-03-14T10:13:16;96301.03;;;15.52;53.10
15694;BME280;7947;48.834;9.132;2023-03-14T10:16:30;96304.06;;;15.34;54.11
15694;BME280;7947;48.834;9.132;2023-03-14T10:19:55;96300.75;;;15.57;53.83
15694;BME280;7947;48.834;9.132;2023-03-14T10:23:19;96307.38;;;15.94;53.52
15694;BME280;7947;48.834;9.132;2023-03-14T10:26:57;96296.53;;;16.28;52.69
15694;BME280;7947;48.834;9.132;2023-03-14T10:30:29;96309.97;;;16.25;50.67
15694;BME280;7947;48.834;9.132;2023-03-14T10:33:41;96280.75;;;15.77;52.32
15694;BME280;7947;48.834;9.132;2023-03-14T10:37:04;96282.78;;;15.64;54.77
15694;BME280;7947;48.834;9.132;2023-03-14T10:40:26;96289.16;;;15.56;53.02
15694;BME280;7947;48.834;9.132;2023-03-14T10:43:40;96293.91;;;15.78;52.99
15694;BME280;7947;48.834;9.132;2023-03-14T10:47:03;96293.50;;;15.95;53.14
15694;BME280;7947;48.834;9.132;2023-03-14T10:50:24;96292.13;;;15.86;53.22
15694;BME280;7947;48.834;9.132;2023-03-14T10:53:43;96300.50;;;15.62;54.21
15694;BME280;7947;48.834;9.132;2023-03-14T10:57:03;96308.81;;;15.25;55.01
15694;BME280;7947;48.834;9.132;2023-03-14T11:00:15;96308.56;;;14.99;56.72
15694;BME280;7947;48.834;9.132;2023-03-14T11:03:48;96319.59;;;14.79;57.70
15694;BME280;7947;48.834;9.132;2023-03-14T11:07:01;96331.34;;;14.71;57.75
15694;BME280;7947;48.834;9.132;2023-03-14T11:10:18;96324.31;;;14.54;58.79
15694;BME280;7947;48.834;9.132;2023-03-14T11:13:29;96335.41;;;14.37;62.19
15694;BME280;7947;48.834;9.132;2023-03-14T11:16:49;96344.84;;;14.31;63.56
15694;BME280;7947;48.834;9.132;2023-03-14T11:20:22;96353.09;;;14.10;65.66
15694;BME280;7947;48.834;9.132;2023-03-14T11:23:44;96353.56;;;13.88;66.14
15694;BME280;7947;48.834;9.132;2023-03-14T11:27:17;96355.47;;;13.64;67.32
15694;BME280;7947;48.834;9.132;2023-03-14T11:30:34;96342.34;;;13.38;70.08
15694;BME280;7947;48.834;9.132;2023-03-14T11:33:50;96358.81;;;13.24;70.92
15694;BME280;7947;48.834;9.132;2023-03-14T11:37:11;96350.19;;;13.19;71.99
15694;BME280;7947;48.834;9.132;2023-03-14T11:40:37;96359.13;;;13.11;71.31
15694;BME280;7947;48.834;9.132;2023-03-14T11:44:10;96359.69;;;13.04;71.67
15694;BME280;7947;48.834;9.132;2023-03-14T11:47:40;96372.66;;;13.02;70.27
15694;BME280;7947;48.834;9.132;2023-03-14T11:51:05;96376.59;;;13.05;70.50
15694;BME280;7947;48.834;9.132;2023-03-14T11:54:31;96380.47;;;12.95;70.63
15694;BME280;7947;48.834;9.132;2023-03-14T11:57:49;96392.13;;;12.87;72.43
15694;BME280;7947;48.834;9.132;2023-03-14T12:01:18;96396.31;;;12.76;73.30
15694;BME280;7947;48.834;9.132;2023-03-14T12:04:52;96400.72;;;12.81;73.53
15694;BME280;7947;48.834;9.132;2023-03-14T12:08:29;96415.41;;;13.04;74.89
15694;BME280;7947;48.834;9.132;2023-03-14T12:11:59;96425.88;;;13.17;73.61
15694;BME280;7947;48.834;9.132;2023-03-14T12:15:18;96427.66;;;13.13;74.22
15694;BME280;7947;48.834;9.132;2023-03-14T12:18:37;96433.03;;;13.13;74.33
15694;BME280;7947;48.834;9.132;2023-03-14T12:21:48;96453.88;;;13.04;75.60
15694;BME280;7947;48.834;9.132;2023-03-14T12:25:04;96472.03;;;13.07;72.17
15694;BME280;7947;48.834;9.132;2023-03-14T12:28:23;96469.81;;;13.09;70.74
15694;BME280;7947;48.834;9.132;2023-03-14T12:31:41;96478.38;;;13.03;69.40
15694;BME280;7947;48.834;9.132;2023-03-14T12:34:49;96503.06;;;12.84;66.79
15694;BME280;7947;48.834;9.132;2023-03-14T12:38:06;96519.94;;;12.93;65.23
15694;BME280;7947;48.834;9.132;2023-03-14T12:41:21;96539.81;;;13.01;64.50
15694;BME280;7947;48.834;9.132;2023-03-14T12:44:52;96557.91;;;12.71;59.82
15694;BME280;7947;48.834;9.132;2023-03-14T12:48:09;96561.66;;;12.79;57.35
15694;BME280;7947;48.834;9.132;2023-03-14T12:51:21;96554.91;;;12.93;58.66
15694;BME280;7947;48.834;9.132;2023-03-14T12:54:50;96570.88;;;12.98;54.27
15694;BME280;7947;48.834;9.132;2023-03-14T12:58:12;96576.94;;;13.16;53.60
15694;BME280;7947;48.834;9.132;2023-03-14T13:01:27;96599.78;;;13.30;53.01
15694;BME280;7947;48.834;9.132;2023-03-14T13:04:46;96591.16;;;13.57;51.91
15694;BME280;7947;48.834;9.132;2023-03-14T13:08:10;96615.09;;;13.71;48.89
15694;BME280;7947;48.834;9.132;2023-03-14T13:11:26;96631.19;;;13.47;48.00
15694;BME280;7947;48.834;9.132;2023-03-14T13:14:34;96623.41;;;13.25;49.07
15694;BME280;7947;48.834;9.132;2023-03-14T13:23:00;96662.03;;;12.62;47.82
15694;BME280;7947;48.834;9.132;2023-03-14T13:30:46;96697.00;;;12.70;47.08
15694;BME280;7947;48.834;9.132;2023-03-14T13:34:34;96703.91;;;12.80;46.23
15694;BME280;7947;48.834;9.132;2023-03-14T13:46:20;96744.91;;;11.97;45.94
15694;BME280;7947;48.834;9.132;2023-03-14T13:49:42;96747.28;;;11.72;47.52
15694;BME280;7947;48.834;9.132;2023-03-14T13:52:57;96769.88;;;11.80;47.78
15694;BME280;7947;48.834;9.132;2023-03-14T13:56:08;96774.63;;;11.74;46.48
15694;BME280;7947;48.834;9.132;2023-03-14T13:59:27;96797.16;;;11.65;46.06
15694;BME280;7947;48.834;9.132;2023-03-14T14:02:39;96793.03;;;11.50;45.78
15694;BME280;7947;48.834;9.132;2023-03-14T14:09:58;96836.25;;;11.32;43.35
15694;BME280;7947;48.834;9.132;2023-03-14T14:13:39;96851.97;;;11.16;40.66
15694;BME280;7947;48.834;9.132;2023-03-14T14:16:55;96857.75;;;11.01;42.87
15694;BME280;7947;48.834;9.132;2023-03-14T14:20:08;96847.91;;;10.97;43.43
15694;BME280;7947;48.834;9.132;2023-03-14T14:23:39;96875.22;;;10.99;44.05
15694;BME280;7947;48.834;9.132;2023-03-14T14:27:00;96889.06;;;10.92;43.11
15694;BME280;7947;48.834;9.132;2023-03-14T14:30:28;96893.47;;;10.88;44.87
15694;BME280;7947;48.834;9.132;2023-03-14T14:37:29;96909.84;;;10.86;44.10
15694;BME280;7947;48.834;9.132;2023-03-14T14:40:45;96910.41;;;10.75;45.58
15694;BME280;7947;48.834;9.132;2023-03-14T14:44:32;96907.91;;;10.78;45.36
15694;BME280;7947;48.834;9.132;2023-03-14T14:47:51;96918.28;;;10.71;45.19
15694;BME280;7947;48.834;9.132;2023-03-14T14:51:01;96935.44;;;10.70;45.90
15694;BME280;7947;48.834;9.132;2023-03-14T14:54:17;96943.38;;;10.75;45.21
15694;BME280;7947;48.834;9.132;2023-03-14T14:57:25;96952.81;;;10.73;46.27
15694;BME280;7947;48.834;9.132;2023-03-14T15:00:40;96939.09;;;10.74;44.81
15694;BME280;7947;48.834;9.132;2023-03-14T15:03:58;96940.56;;;10.80;45.33
15694;BME280;7947;48.834;9.132;2023-03-14T15:07:13;96943.25;;;10.80;44.76
15694;BME280;7947;48.834;9.132;2023-03-14T15:10:29;96953.09;;;10.85;45.14
15694;BME280;7947;48.834;9.132;2023-03-14T15:13:41;96948.94;;;11.01;45.38
15694;BME280;7947;48.834;9.132;2023-03-14T15:16:48;96952.16;;;11.12;45.38
15694;BME280;7947;48.834;9.132;2023-03-14T15:19:56;96962.41;;;11.10;45.23
15694;BME280;7947;48.834;9.132;2023-03-14T15:23:04;96973.50;;;11.17;44.33
15694;BME280;7947;48.834;9.132;2023-03-14T15:26:15;96967.66;;;11.15;44.56
15694;BME280;7947;48.834;9.132;2023-03-14T15:29:25;96969.53;;;11.14;44.01
15694;BME280;7947;48.834;9.132;2023-03-14T15:32:40;96972.09;;;10.97;44.24
15694;BME280;7947;48.834;9.132;2023-03-14T15:39:13;96965.81;;;10.79;46.11
15694;BME280;7947;48.834;9.132;2023-03-14T15:42:20;96982.75;;;10.88;44.51
15694;BME280;7947;48.834;9.132;2023-03-14T15:45:28;96979.59;;;10.86;45.54
15694;BME280;7947;48.834;9.132;2023-03-14T15:48:42;96986.66;;;10.82;45.85
15694;BME280;7947;48.834;9.132;2023-03-14T15:51:50;97000.06;;;10.82;46.63
15694;BME280;7947;48.834;9.132;2023-03-14T15:55:02;96993.00;;;10.86;46.67
15694;BME280;7947;48.834;9.132;2023-03-14T15:58:15;96995.84;;;10.90;46.73
15694;BME280;7947;48.834;9.132;2023-03-14T16:01:25;96999.53;;;10.94;45.83
15694;BME280;7947;48.834;9.132;2023-03-14T16:04:33;97006.59;;;10.90;46.85
15694;BME280;7947;48.834;9.132;2023-03-14T16:07:42;97007.81;;;10.84;45.89
15694;BME280;7947;48.834;9.132;2023-03-14T16:10:49;97029.09;;;10.67;46.81
15694;BME280;7947;48.834;9.132;2023-03-14T16:14:00;97025.16;;;10.64;47.25
15694;BME280;7947;48.834;9.132;2023-03-14T16:17:08;97038.47;;;10.56;48.03
15694;BME280;7947;48.834;9.132;2023-03-14T16:20:18;97038.88;;;10.49;47.71
15694;BME280;7947;48.834;9.132;2023-03-14T16:23:51;97050.69;;;10.48;48.23
15694;BME280;7947;48.834;9.132;2023-03-14T16:27:06;97051.00;;;10.47;48.07
15694;BME280;7947;48.834;9.132;2023-03-14T16:30:15;97047.84;;;10.45;47.46
15694;BME280;7947;48.834;9.132;2023-03-14T16:33:23;97050.78;;;10.43;48.67
15694;BME280;7947;48.834;9.132;2023-03-14T16:36:28;97057.88;;;10.39;49.42
15694;BME280;7947;48.834;9.132;2023-03-14T16:39:35;97058.13;;;10.38;48.48
15694;BME280;7947;48.834;9.132;2023-03-14T16:43:03;97055.28;;;10.34;48.54
15694;BME280;7947;48.834;9.132;2023-03-14T16:46:35;97067.19;;;10.28;48.85
15694;BME280;7947;48.834;9.132;2023-03-14T16:49:50;97074.72;;;10.26;49.66
15694;BME280;7947;48.834;9.132;2023-03-14T16:52:57;97074.22;;;10.24;49.69
15694;BME280;7947;48.834;9.132;2023-03-14T17:03:54;97126.63;;;10.17;52.63
15694;BME280;7947;48.834;9.132;2023-03-14T17:08:16;97138.38;;;10.02;56.89
15694;BME280;7947;48.834;9.132;2023-03-14T17:11:43;97151.81;;;9.83;58.52
15694;BME280;7947;48.834;9.132;2023-03-14T17:18:45;97167.28;;;9.54;61.96
15694;BME280;7947;48.834;9.132;2023-03-14T17:22:22;97177.34;;;9.44;63.06
15694;BME280;7947;48.834;9.132;2023-03-14T17:26:34;97186.63;;;9.33;63.47
15694;BME280;7947;48.834;9.132;2023-03-14T19:20:55;97354.75;;;8.40;66.00
15694;BME280;7947;48.834;9.132;2023-03-14T19:24:03;97362.53;;;8.36;65.70
15694;BME280;7947;48.834;9.132;2023-03-14T19:27:11;97369.44;;;8.37;65.41
15694;BME280;7947;48.834;9.132;2023-03-14T19:30:23;97377.69;;;8.41;64.93
15694;BME280;7947;48.834;9.132;2023-03-14T19:33:36;97379.84;;;8.39;65.21
15694;BME280;7947;48.834;9.132;2023-03-14T19:36:45;97390.59;;;8.29;66.04
15694;BME280;7947;48.834;9.132;2023-03-14T19:39:53;97392.47;;;8.23;66.55